Volgo-balt 229 — UHZF — position and weather

sailwx.info

Track history (hours):
 
Tides and Currents Weather Stations Pressure Air Temp Water Temp Dewpoint Dewpoint Depression Visibility Wind Speed Wind Dir Waves Ship Positions

Volgo-balt 229

Last reported at 2017-Jul-18 03:07 UTC. Time now 2017-Jul-23 08:35 UTC.
Position N 59°48' E 030°38'.

Length 113 m; draft 2.6 m.

Type: Ship. MMSI: 273336300.

Date/timePositionNaut miles runAvg speedWind from/ knotsBaromVisibWave heightAir tempDewpointWater temp
2017-Jul-18 03:07N 59°48' E 030°38'3 5.6
2017-Jul-18 02:39N 59°49' E 030°34'1 4.8
2017-Jul-18 02:29N 59°50' E 030°34'2 4.7
2017-Jul-18 02:00N 59°51' E 030°30'3 4.9
2017-Jul-18 01:29N 59°53' E 030°27'1 2.9
2017-Jul-18 01:00N 59°54' E 030°26'2 3.4
2017-Jul-18 00:31N 59°56' E 030°24'0 0.0
2017-Jul-18 00:00N 59°56' E 030°24'2 3.1
2017-Jul-17 23:31N 59°57' E 030°24'3 5.2
2017-Jul-17 23:00N 59°57' E 030°19'1 2.1
2017-Jul-17 22:30N 59°56' E 030°17'0 0.0
2017-Jul-17 22:00N 59°56' E 030°17'0 0.0
2017-Jul-17 21:27N 59°56' E 030°17'0 0.0
2017-Jul-17 21:00N 59°56' E 030°17'0 0.0
2017-Jul-17 20:30N 59°56' E 030°17'0 0.0
2017-Jul-17 20:00N 59°56' E 030°17'0 0.0
2017-Jul-17 19:30N 59°56' E 030°17'0 0.0
2017-Jul-17 19:00N 59°56' E 030°17'0 0.0
2017-Jul-17 18:30N 59°56' E 030°17'0 0.0
2017-Jul-17 18:00N 59°56' E 030°17'0 0.0
2017-Jul-17 17:30N 59°56' E 030°17'0 0.0
2017-Jul-17 17:00N 59°56' E 030°17'0 0.0
2017-Jul-17 16:27N 59°56' E 030°17'0 0.0
2017-Jul-17 16:00N 59°56' E 030°17'0 0.0
2017-Jul-17 15:27N 59°56' E 030°17'0 0.0
2017-Jul-17 14:57N 59°56' E 030°17'0 0.0
2017-Jul-17 14:30N 59°56' E 030°17'0 0.0
2017-Jul-17 14:00N 59°56' E 030°17'0 0.0
2017-Jul-17 13:24N 59°56' E 030°17'0 0.0
2017-Jul-17 13:00N 59°56' E 030°17'0 0.0
2017-Jul-17 12:30N 59°56' E 030°17'0 0.0
2017-Jul-17 12:00N 59°56' E 030°17'0 0.0
2017-Jul-17 11:30N 59°56' E 030°17'0 0.0
2017-Jul-17 11:00N 59°56' E 030°17'0 0.0
2017-Jul-17 10:30N 59°56' E 030°17'0 0.0
2017-Jul-17 10:00N 59°56' E 030°17'0 0.0
2017-Jul-17 09:30N 59°56' E 030°17'0 0.1
2017-Jul-17 09:00N 59°56' E 030°17'2 4.0
2017-Jul-17 08:30N 59°55' E 030°14'0 0.4
2017-Jul-17 07:59N 59°54' E 030°14'0 0.0
2017-Jul-17 07:29N 59°54' E 030°14'0 0.0
2017-Jul-17 06:59N 59°54' E 030°14'0 0.0
2017-Jul-17 06:30N 59°54' E 030°14'0 0.0
2017-Jul-17 06:00N 59°54' E 030°14'0 0.0
2017-Jul-17 05:30N 59°54' E 030°14'0 0.0
2017-Jul-17 05:00N 59°54' E 030°14'1 1.3
2017-Jul-17 04:30N 59°54' E 030°13'3 5.2
2017-Jul-17 04:00N 59°54' E 030°08'4 7.8
2017-Jul-17 03:30N 59°55' E 030°00'4 7.9
2017-Jul-17 02:59N 59°57' E 029°53'4 7.8
2017-Jul-17 02:30N 59°59' E 029°46'18 6.5
2017-Jul-16 23:44N 60°01' E 029°11'3 6.6
2017-Jul-16 23:19N 60°02' E 029°06'2 6.8
2017-Jul-16 23:00N 60°02' E 029°01'3 6.6
2017-Jul-16 22:30N 60°02' E 028°55'3 6.5
2017-Jul-16 22:00N 60°02' E 028°48'4 7.6
2017-Jul-16 21:30N 60°02' E 028°41'4 8.6
2017-Jul-16 21:00N 60°02' E 028°32'4 9.0
2017-Jul-16 20:30N 60°03' E 028°23'4 7.7
2017-Jul-16 20:00N 60°06' E 028°18'4 7.6
2017-Jul-16 19:30N 60°07' E 028°11'4 8.1
2017-Jul-16 19:00N 60°08' E 028°03'4 8.3
2017-Jul-16 18:30N 60°10' E 027°55'4 8.3
2017-Jul-16 18:01N 60°11' E 027°47'4 8.3
2017-Jul-16 17:30N 60°08' E 027°40'4 8.3
2017-Jul-16 17:00N 60°06' E 027°32'4 8.4
2017-Jul-16 16:30N 60°04' E 027°25'5 9.2
2017-Jul-16 16:00N 60°02' E 027°17'4 8.5
2017-Jul-16 15:30N 59°59' E 027°10'4 7.5
2017-Jul-16 15:01N 59°58' E 027°04'4 8.6
2017-Jul-16 14:30N 59°58' E 026°55'5 9.3
2017-Jul-16 14:01N 59°59' E 026°46'4 7.0
2017-Jul-16 13:31N 59°59' E 026°39'5 9.1
2017-Jul-16 13:00N 59°58' E 026°30'4 8.1
2017-Jul-16 12:30N 59°57' E 026°23'4 8.8
2017-Jul-16 12:01N 59°55' E 026°14'4 7.3
2017-Jul-16 11:30N 59°54' E 026°07'4 8.6
2017-Jul-16 11:00N 59°53' E 025°59'4 7.9
2017-Jul-16 10:31N 59°52' E 025°52'4 7.9
2017-Jul-16 10:00N 59°51' E 025°44'4 7.7
2017-Jul-16 09:30N 59°50' E 025°36'4 7.7
2017-Jul-16 09:00N 59°49' E 025°29'4 7.7
2017-Jul-16 08:30N 59°48' E 025°21'5 9.2
2017-Jul-16 08:00N 59°47' E 025°12'4 7.9
2017-Jul-16 07:30N 59°46' E 025°05'4 7.6
2017-Jul-16 07:00N 59°46' E 024°57'4 7.4
2017-Jul-16 06:31N 59°45' E 024°50'4 7.9
2017-Jul-16 06:01N 59°44' E 024°43'4 8.1
2017-Jul-16 05:30N 59°43' E 024°35'4 7.9
2017-Jul-16 05:00N 59°41' E 024°28'4 7.6
2017-Jul-16 04:30N 59°37' E 024°25'4 8.1
2017-Jul-16 04:00N 59°33' E 024°26'4 7.7
2017-Jul-16 03:30N 59°31' E 024°31'2 4.6
2017-Jul-16 03:00N 59°29' E 024°35'0 0.0
2017-Jul-16 02:30N 59°29' E 024°35'1 1.7
2017-Jul-16 02:01N 59°29' E 024°33'4 7.2
2017-Jul-16 01:31N 59°30' E 024°26'4 8.1
2017-Jul-16 01:01N 59°29' E 024°18'5 9.1
2017-Jul-16 00:30N 59°28' E 024°10'4 7.9
2017-Jul-16 00:00N 59°27' E 024°02'4 7.9
2017-Jul-15 23:31N 59°27' E 023°55'4 8.2
2017-Jul-15 23:00N 59°26' E 023°47'4 7.9
2017-Jul-15 22:30N 59°25' E 023°39'4 7.9
2017-Jul-15 22:00N 59°25' E 023°31'4 8.3
2017-Jul-15 21:31N 59°24' E 023°23'4 8.7
2017-Jul-15 21:01N 59°23' E 023°15'4 7.6
2017-Jul-15 20:30N 59°22' E 023°08'4 8.7
2017-Jul-15 20:00N 59°20' E 023°00'4 8.8
2017-Jul-15 19:30N 59°18' E 022°52'3 6.7
2017-Jul-15 19:00N 59°16' E 022°47'4 7.8
2017-Jul-15 18:30N 59°14' E 022°40'4 8.3
2017-Jul-15 18:00N 59°13' E 022°33'4 8.2
2017-Jul-15 17:30N 59°10' E 022°26'4 8.2
2017-Jul-15 17:01N 59°08' E 022°19'4 8.1
2017-Jul-15 16:30N 59°06' E 022°12'4 8.1
2017-Jul-15 16:01N 59°05' E 022°05'4 8.1
2017-Jul-15 15:31N 59°03' E 021°58'4 8.2
2017-Jul-15 15:01N 59°00' E 021°52'8 8.1
2017-Jul-15 14:01N 58°55' E 021°39'4 8.2
2017-Jul-15 13:31N 58°53' E 021°33'4 8.2
2017-Jul-15 13:00N 58°50' E 021°27'4 8.2
2017-Jul-15 12:30N 58°47' E 021°21'4 8.3
2017-Jul-15 12:01N 58°45' E 021°14'4 8.3
2017-Jul-15 11:30N 58°42' E 021°08'4 8.5
2017-Jul-15 11:00N 58°40' E 021°01'4 8.5
2017-Jul-15 10:30N 58°37' E 020°55'4 8.5
2017-Jul-15 10:00N 58°35' E 020°48'4 8.2
2017-Jul-15 09:30N 58°33' E 020°41'4 8.5
2017-Jul-15 09:00N 58°30' E 020°34'4 8.4
2017-Jul-15 08:30N 58°29' E 020°27'4 8.0
2017-Jul-15 08:00N 58°28' E 020°20'4 8.5
2017-Jul-15 07:30N 58°25' E 020°13'4 8.4
2017-Jul-15 07:00N 58°23' E 020°07'4 8.5
2017-Jul-15 06:30N 58°20' E 019°60'4 8.5
2017-Jul-15 06:00N 58°18' E 019°53'4 8.4
2017-Jul-15 05:30N 58°16' E 019°47'4 8.6
2017-Jul-15 05:00N 58°13' E 019°40'4 8.5
2017-Jul-15 04:30N 58°11' E 019°33'4 8.3
2017-Jul-15 04:01N 58°08' E 019°27'4 8.3
2017-Jul-15 03:30N 58°06' E 019°20'4 8.3
2017-Jul-15 03:00N 58°05' E 019°13'4 8.3
2017-Jul-15 02:31N 58°03' E 019°06'4 8.4
2017-Jul-15 02:00N 58°02' E 018°58'4 8.6
2017-Jul-15 01:30N 57°60' E 018°51'4 8.5
2017-Jul-15 01:00N 57°58' E 018°44'4 8.1
2017-Jul-15 00:30N 57°57' E 018°36'4 8.0
2017-Jul-15 00:00N 57°56' E 018°29'4 7.9
2017-Jul-14 23:30N 57°54' E 018°22'4 8.1
2017-Jul-14 23:00N 57°52' E 018°16'4 8.2
2017-Jul-14 22:30N 57°50' E 018°10'4 8.0
2017-Jul-14 22:00N 57°48' E 018°03'4 8.0
2017-Jul-14 21:30N 57°46' E 017°57'14 8.4
2017-Jul-14 19:49N 57°38' E 017°34'3 8.4
2017-Jul-14 19:30N 57°37' E 017°30'4 8.6
2017-Jul-14 19:00N 57°35' E 017°23'5 9.4
2017-Jul-14 18:30N 57°33' E 017°15'4 8.3
2017-Jul-14 18:00N 57°31' E 017°08'20 8.0
2017-Jul-14 15:32N 57°15' E 016°45'1 8.4
2017-Jul-14 15:26N 57°15' E 016°44'4 8.3
2017-Jul-14 14:58N 57°12' E 016°39'4 8.0
2017-Jul-14 14:31N 57°09' E 016°35'2 0.2
2017-Jul-14 03:30N 57°07' E 016°33'172 6.6
2017-Jul-13 01:39N 58°49' E 020°53'1 7.4
2017-Jul-13 01:31N 58°50' E 020°54'4 7.3
2017-Jul-13 01:00N 58°52' E 020°60'4 7.3
2017-Jul-13 00:30N 58°55' E 021°05'4 7.3
2017-Jul-13 00:00N 58°57' E 021°11'4 7.2
2017-Jul-12 23:31N 58°59' E 021°16'4 7.0
2017-Jul-12 23:00N 59°01' E 021°21'4 7.8
2017-Jul-12 22:30N 59°04' E 021°27'4 7.1
2017-Jul-12 22:00N 59°06' E 021°33'3 6.8
2017-Jul-12 21:30N 59°09' E 021°37'3 6.6
2017-Jul-12 21:00N 59°11' E 021°42'4 7.2
2017-Jul-12 20:30N 59°13' E 021°47'3 6.8
2017-Jul-12 20:00N 59°16' E 021°53'4 7.8
2017-Jul-12 19:31N 59°18' E 021°59'3 6.5
2017-Jul-12 19:00N 59°20' E 022°04'4 7.2
2017-Jul-12 18:31N 59°22' E 022°09'4 8.4
2017-Jul-12 18:01N 59°25' E 022°15'4 7.4
2017-Jul-12 17:30N 59°27' E 022°21'4 7.2
2017-Jul-12 17:01N 59°30' E 022°26'3 6.9
2017-Jul-12 16:30N 59°32' E 022°32'4 7.9
2017-Jul-12 16:00N 59°33' E 022°39'3 6.8
2017-Jul-12 15:30N 59°34' E 022°46'4 7.8
2017-Jul-12 15:01N 59°35' E 022°53'8 7.8
2017-Jul-12 14:01N 59°37' E 023°08'5 9.2
2017-Jul-12 13:30N 59°38' E 023°17'3 6.4
2017-Jul-12 13:00N 59°40' E 023°23'4 7.7
2017-Jul-12 12:30N 59°41' E 023°30'4 7.5
2017-Jul-12 12:00N 59°43' E 023°36'4 7.5
2017-Jul-12 11:30N 59°43' E 023°44'4 7.2
2017-Jul-12 11:00N 59°43' E 023°51'3 5.8
2017-Jul-12 10:31N 59°43' E 023°57'4 7.1
2017-Jul-12 10:00N 59°45' E 024°03'4 7.2
2017-Jul-12 09:31N 59°46' E 024°10'4 7.3
2017-Jul-12 09:00N 59°47' E 024°17'4 7.5
2017-Jul-12 08:30N 59°47' E 024°24'4 8.0
2017-Jul-12 08:01N 59°48' E 024°32'4 7.5
2017-Jul-12 07:30N 59°49' E 024°39'4 7.6
2017-Jul-12 07:00N 59°49' E 024°47'4 7.6
2017-Jul-12 06:30N 59°50' E 024°54'3 6.4
2017-Jul-12 06:00N 59°51' E 025°00'4 8.3
2017-Jul-12 05:30N 59°52' E 025°08'4 8.1
2017-Jul-12 05:00N 59°53' E 025°16'4 7.9
2017-Jul-12 04:31N 59°53' E 025°24'4 7.9
2017-Jul-12 04:00N 59°54' E 025°32'4 7.9
2017-Jul-12 03:30N 59°55' E 025°39'4 7.8
2017-Jul-12 03:00N 59°56' E 025°47'4 7.8
2017-Jul-12 02:30N 59°57' E 025°54'4 7.8
2017-Jul-12 02:00N 59°58' E 026°02'4 7.6
2017-Jul-12 01:31N 59°59' E 026°09'4 7.5
2017-Jul-12 01:00N 59°60' E 026°17'4 7.5
2017-Jul-12 00:31N 60°01' E 026°24'4 7.5
2017-Jul-12 00:01N 60°02' E 026°31'4 7.3
2017-Jul-11 23:30N 60°02' E 026°38'4 7.5
2017-Jul-11 23:00N 60°01' E 026°46'4 7.5
2017-Jul-11 22:31N 60°00' E 026°53'4 7.5
2017-Jul-11 22:01N 59°60' E 027°00'3 6.8
2017-Jul-11 21:31N 60°01' E 027°07'4 7.1
2017-Jul-11 21:01N 60°02' E 027°13'4 8.4
2017-Jul-11 20:30N 60°05' E 027°20'4 7.3
2017-Jul-11 20:00N 60°07' E 027°26'3 6.4
2017-Jul-11 19:30N 60°08' E 027°32'4 7.4
2017-Jul-11 19:00N 60°10' E 027°38'4 7.5
2017-Jul-11 18:31N 60°12' E 027°45'4 7.7
2017-Jul-11 18:00N 60°11' E 027°52'4 7.8
2017-Jul-11 17:30N 60°10' E 028°00'4 7.7
2017-Jul-11 17:00N 60°09' E 028°08'4 7.6
2017-Jul-11 16:31N 60°08' E 028°15'4 7.6
2017-Jul-11 15:59N 60°06' E 028°22'4 7.8
2017-Jul-11 15:30N 60°04' E 028°28'4 7.8
2017-Jul-11 15:01N 60°04' E 028°36'4 7.9
2017-Jul-11 14:31N 60°03' E 028°44'4 7.8
2017-Jul-11 14:00N 60°03' E 028°51'4 7.7
2017-Jul-11 13:30N 60°03' E 028°59'20 7.6
2017-Jul-11 10:54N 60°00' E 029°38'3 8.1
2017-Jul-11 10:30N 59°59' E 029°44'4 7.3
2017-Jul-11 10:00N 59°57' E 029°51'4 7.4
2017-Jul-11 09:30N 59°56' E 029°58'4 7.8
2017-Jul-11 09:00N 59°54' E 030°05'3 5.8
2017-Jul-11 08:31N 59°53' E 030°10'2 4.3
2017-Jul-11 08:00N 59°54' E 030°14'0 0.0
2017-Jul-11 07:28N 59°54' E 030°14'0 0.0
2017-Jul-11 06:58N 59°54' E 030°14'0 0.0
2017-Jul-11 06:25N 59°54' E 030°14'0 0.0
2017-Jul-11 05:58N 59°54' E 030°14'0 0.0
2017-Jul-11 05:28N 59°54' E 030°14'0 0.0
2017-Jul-11 04:58N 59°54' E 030°14'0 0.0
2017-Jul-11 04:25N 59°54' E 030°14'0 0.0
2017-Jul-11 03:55N 59°54' E 030°14'0 0.0
2017-Jul-11 03:28N 59°54' E 030°14'0 0.0
2017-Jul-11 02:58N 59°54' E 030°14'0 0.0
2017-Jul-11 02:28N 59°54' E 030°14'0 0.0
2017-Jul-11 02:00N 59°54' E 030°14'3 5.5
2017-Jul-11 01:30N 59°56' E 030°18'3 5.9
2017-Jul-11 01:01N 59°56' E 030°24'3 5.0
2017-Jul-11 00:31N 59°54' E 030°26'1 1.6
2017-Jul-11 00:01N 59°53' E 030°27'3 5.7
2017-Jul-10 23:30N 59°51' E 030°30'0 0.1
2017-Jul-10 23:00N 59°51' E 030°30'0 0.0
2017-Jul-10 22:29N 59°51' E 030°30'0 0.0
2017-Jul-10 21:59N 59°51' E 030°30'0 0.0
2017-Jul-10 21:29N 59°51' E 030°30'0 0.0
2017-Jul-10 20:34N 59°51' E 030°30'0 0.0
2017-Jul-10 20:30N 59°51' E 030°30'0 0.0
2017-Jul-10 20:00N 59°51' E 030°30'0 0.0
2017-Jul-10 19:30N 59°51' E 030°30'0 0.0
2017-Jul-10 18:58N 59°51' E 030°30'0 0.0
2017-Jul-10 18:27N 59°51' E 030°30'0 0.0
2017-Jul-10 18:00N 59°51' E 030°30'0 0.3
2017-Jul-10 17:28N 59°51' E 030°30'2 4.9
2017-Jul-10 17:00N 59°50' E 030°34'  
Track history (hours):
 
Tides and Currents Weather Stations Pressure Air Temp Water Temp Dewpoint Dewpoint Depression Visibility Wind Speed Wind Dir Waves Ship Positions

Volgo-balt 229

Last reported at 2017-Jul-18 03:07 UTC. Time now 2017-Jul-23 08:35 UTC.
Position N 59°48' E 030°38'.

Length 113 m; draft 2.6 m.

Type: Ship. MMSI: 273336300.

Date/timePositionNaut miles runAvg speedWind from/ knotsBaromVisibWave heightAir tempDewpointWater temp
2017-Jul-18 03:07N 59°48' E 030°38'3 5.6
2017-Jul-18 02:39N 59°49' E 030°34'1 4.8
2017-Jul-18 02:29N 59°50' E 030°34'2 4.7
2017-Jul-18 02:00N 59°51' E 030°30'3 4.9
2017-Jul-18 01:29N 59°53' E 030°27'1 2.9
2017-Jul-18 01:00N 59°54' E 030°26'2 3.4
2017-Jul-18 00:31N 59°56' E 030°24'0 0.0
2017-Jul-18 00:00N 59°56' E 030°24'2 3.1
2017-Jul-17 23:31N 59°57' E 030°24'3 5.2
2017-Jul-17 23:00N 59°57' E 030°19'1 2.1
2017-Jul-17 22:30N 59°56' E 030°17'0 0.0
2017-Jul-17 22:00N 59°56' E 030°17'0 0.0
2017-Jul-17 21:27N 59°56' E 030°17'0 0.0
2017-Jul-17 21:00N 59°56' E 030°17'0 0.0
2017-Jul-17 20:30N 59°56' E 030°17'0 0.0
2017-Jul-17 20:00N 59°56' E 030°17'0 0.0
2017-Jul-17 19:30N 59°56' E 030°17'0 0.0
2017-Jul-17 19:00N 59°56' E 030°17'0 0.0
2017-Jul-17 18:30N 59°56' E 030°17'0 0.0
2017-Jul-17 18:00N 59°56' E 030°17'0 0.0
2017-Jul-17 17:30N 59°56' E 030°17'0 0.0
2017-Jul-17 17:00N 59°56' E 030°17'0 0.0
2017-Jul-17 16:27N 59°56' E 030°17'0 0.0
2017-Jul-17 16:00N 59°56' E 030°17'0 0.0
2017-Jul-17 15:27N 59°56' E 030°17'0 0.0
2017-Jul-17 14:57N 59°56' E 030°17'0 0.0
2017-Jul-17 14:30N 59°56' E 030°17'0 0.0
2017-Jul-17 14:00N 59°56' E 030°17'0 0.0
2017-Jul-17 13:24N 59°56' E 030°17'0 0.0
2017-Jul-17 13:00N 59°56' E 030°17'0 0.0
2017-Jul-17 12:30N 59°56' E 030°17'0 0.0
2017-Jul-17 12:00N 59°56' E 030°17'0 0.0
2017-Jul-17 11:30N 59°56' E 030°17'0 0.0
2017-Jul-17 11:00N 59°56' E 030°17'0 0.0
2017-Jul-17 10:30N 59°56' E 030°17'0 0.0
2017-Jul-17 10:00N 59°56' E 030°17'0 0.0
2017-Jul-17 09:30N 59°56' E 030°17'0 0.1
2017-Jul-17 09:00N 59°56' E 030°17'2 4.0
2017-Jul-17 08:30N 59°55' E 030°14'0 0.4
2017-Jul-17 07:59N 59°54' E 030°14'0 0.0
2017-Jul-17 07:29N 59°54' E 030°14'0 0.0
2017-Jul-17 06:59N 59°54' E 030°14'0 0.0
2017-Jul-17 06:30N 59°54' E 030°14'0 0.0
2017-Jul-17 06:00N 59°54' E 030°14'0 0.0
2017-Jul-17 05:30N 59°54' E 030°14'0 0.0
2017-Jul-17 05:00N 59°54' E 030°14'1 1.3
2017-Jul-17 04:30N 59°54' E 030°13'3 5.2
2017-Jul-17 04:00N 59°54' E 030°08'4 7.8
2017-Jul-17 03:30N 59°55' E 030°00'4 7.9
2017-Jul-17 02:59N 59°57' E 029°53'4 7.8
2017-Jul-17 02:30N 59°59' E 029°46'18 6.5
2017-Jul-16 23:44N 60°01' E 029°11'3 6.6
2017-Jul-16 23:19N 60°02' E 029°06'2 6.8
2017-Jul-16 23:00N 60°02' E 029°01'3 6.6
2017-Jul-16 22:30N 60°02' E 028°55'3 6.5
2017-Jul-16 22:00N 60°02' E 028°48'4 7.6
2017-Jul-16 21:30N 60°02' E 028°41'4 8.6
2017-Jul-16 21:00N 60°02' E 028°32'4 9.0
2017-Jul-16 20:30N 60°03' E 028°23'4 7.7
2017-Jul-16 20:00N 60°06' E 028°18'4 7.6
2017-Jul-16 19:30N 60°07' E 028°11'4 8.1
2017-Jul-16 19:00N 60°08' E 028°03'4 8.3
2017-Jul-16 18:30N 60°10' E 027°55'4 8.3
2017-Jul-16 18:01N 60°11' E 027°47'4 8.3
2017-Jul-16 17:30N 60°08' E 027°40'4 8.3
2017-Jul-16 17:00N 60°06' E 027°32'4 8.4
2017-Jul-16 16:30N 60°04' E 027°25'5 9.2
2017-Jul-16 16:00N 60°02' E 027°17'4 8.5
2017-Jul-16 15:30N 59°59' E 027°10'4 7.5
2017-Jul-16 15:01N 59°58' E 027°04'4 8.6
2017-Jul-16 14:30N 59°58' E 026°55'5 9.3
2017-Jul-16 14:01N 59°59' E 026°46'4 7.0
2017-Jul-16 13:31N 59°59' E 026°39'5 9.1
2017-Jul-16 13:00N 59°58' E 026°30'4 8.1
2017-Jul-16 12:30N 59°57' E 026°23'4 8.8
2017-Jul-16 12:01N 59°55' E 026°14'4 7.3
2017-Jul-16 11:30N 59°54' E 026°07'4 8.6
2017-Jul-16 11:00N 59°53' E 025°59'4 7.9
2017-Jul-16 10:31N 59°52' E 025°52'4 7.9
2017-Jul-16 10:00N 59°51' E 025°44'4 7.7
2017-Jul-16 09:30N 59°50' E 025°36'4 7.7
2017-Jul-16 09:00N 59°49' E 025°29'4 7.7
2017-Jul-16 08:30N 59°48' E 025°21'5 9.2
2017-Jul-16 08:00N 59°47' E 025°12'4 7.9
2017-Jul-16 07:30N 59°46' E 025°05'4 7.6
2017-Jul-16 07:00N 59°46' E 024°57'4 7.4
2017-Jul-16 06:31N 59°45' E 024°50'4 7.9
2017-Jul-16 06:01N 59°44' E 024°43'4 8.1
2017-Jul-16 05:30N 59°43' E 024°35'4 7.9
2017-Jul-16 05:00N 59°41' E 024°28'4 7.6
2017-Jul-16 04:30N 59°37' E 024°25'4 8.1
2017-Jul-16 04:00N 59°33' E 024°26'4 7.7
2017-Jul-16 03:30N 59°31' E 024°31'2 4.6
2017-Jul-16 03:00N 59°29' E 024°35'0 0.0
2017-Jul-16 02:30N 59°29' E 024°35'1 1.7
2017-Jul-16 02:01N 59°29' E 024°33'4 7.2
2017-Jul-16 01:31N 59°30' E 024°26'4 8.1
2017-Jul-16 01:01N 59°29' E 024°18'5 9.1
2017-Jul-16 00:30N 59°28' E 024°10'4 7.9
2017-Jul-16 00:00N 59°27' E 024°02'4 7.9
2017-Jul-15 23:31N 59°27' E 023°55'4 8.2
2017-Jul-15 23:00N 59°26' E 023°47'4 7.9
2017-Jul-15 22:30N 59°25' E 023°39'4 7.9
2017-Jul-15 22:00N 59°25' E 023°31'4 8.3
2017-Jul-15 21:31N 59°24' E 023°23'4 8.7
2017-Jul-15 21:01N 59°23' E 023°15'4 7.6
2017-Jul-15 20:30N 59°22' E 023°08'4 8.7
2017-Jul-15 20:00N 59°20' E 023°00'4 8.8
2017-Jul-15 19:30N 59°18' E 022°52'3 6.7
2017-Jul-15 19:00N 59°16' E 022°47'4 7.8
2017-Jul-15 18:30N 59°14' E 022°40'4 8.3
2017-Jul-15 18:00N 59°13' E 022°33'4 8.2
2017-Jul-15 17:30N 59°10' E 022°26'4 8.2
2017-Jul-15 17:01N 59°08' E 022°19'4 8.1
2017-Jul-15 16:30N 59°06' E 022°12'4 8.1
2017-Jul-15 16:01N 59°05' E 022°05'4 8.1
2017-Jul-15 15:31N 59°03' E 021°58'4 8.2
2017-Jul-15 15:01N 59°00' E 021°52'8 8.1
2017-Jul-15 14:01N 58°55' E 021°39'4 8.2
2017-Jul-15 13:31N 58°53' E 021°33'4 8.2
2017-Jul-15 13:00N 58°50' E 021°27'4 8.2
2017-Jul-15 12:30N 58°47' E 021°21'4 8.3
2017-Jul-15 12:01N 58°45' E 021°14'4 8.3
2017-Jul-15 11:30N 58°42' E 021°08'4 8.5
2017-Jul-15 11:00N 58°40' E 021°01'4 8.5
2017-Jul-15 10:30N 58°37' E 020°55'4 8.5
2017-Jul-15 10:00N 58°35' E 020°48'4 8.2
2017-Jul-15 09:30N 58°33' E 020°41'4 8.5
2017-Jul-15 09:00N 58°30' E 020°34'4 8.4
2017-Jul-15 08:30N 58°29' E 020°27'4 8.0
2017-Jul-15 08:00N 58°28' E 020°20'4 8.5
2017-Jul-15 07:30N 58°25' E 020°13'4 8.4
2017-Jul-15 07:00N 58°23' E 020°07'4 8.5
2017-Jul-15 06:30N 58°20' E 019°60'4 8.5
2017-Jul-15 06:00N 58°18' E 019°53'4 8.4
2017-Jul-15 05:30N 58°16' E 019°47'4 8.6
2017-Jul-15 05:00N 58°13' E 019°40'4 8.5
2017-Jul-15 04:30N 58°11' E 019°33'4 8.3
2017-Jul-15 04:01N 58°08' E 019°27'4 8.3
2017-Jul-15 03:30N 58°06' E 019°20'4 8.3
2017-Jul-15 03:00N 58°05' E 019°13'4 8.3
2017-Jul-15 02:31N 58°03' E 019°06'4 8.4
2017-Jul-15 02:00N 58°02' E 018°58'4 8.6
2017-Jul-15 01:30N 57°60' E 018°51'4 8.5
2017-Jul-15 01:00N 57°58' E 018°44'4 8.1
2017-Jul-15 00:30N 57°57' E 018°36'4 8.0
2017-Jul-15 00:00N 57°56' E 018°29'4 7.9
2017-Jul-14 23:30N 57°54' E 018°22'4 8.1
2017-Jul-14 23:00N 57°52' E 018°16'4 8.2
2017-Jul-14 22:30N 57°50' E 018°10'4 8.0
2017-Jul-14 22:00N 57°48' E 018°03'4 8.0
2017-Jul-14 21:30N 57°46' E 017°57'14 8.4
2017-Jul-14 19:49N 57°38' E 017°34'3 8.4
2017-Jul-14 19:30N 57°37' E 017°30'4 8.6
2017-Jul-14 19:00N 57°35' E 017°23'5 9.4
2017-Jul-14 18:30N 57°33' E 017°15'4 8.3
2017-Jul-14 18:00N 57°31' E 017°08'20 8.0
2017-Jul-14 15:32N 57°15' E 016°45'1 8.4
2017-Jul-14 15:26N 57°15' E 016°44'4 8.3
2017-Jul-14 14:58N 57°12' E 016°39'4 8.0
2017-Jul-14 14:31N 57°09' E 016°35'2 0.2
2017-Jul-14 03:30N 57°07' E 016°33'172 6.6
2017-Jul-13 01:39N 58°49' E 020°53'1 7.4
2017-Jul-13 01:31N 58°50' E 020°54'4 7.3
2017-Jul-13 01:00N 58°52' E 020°60'4 7.3
2017-Jul-13 00:30N 58°55' E 021°05'4 7.3
2017-Jul-13 00:00N 58°57' E 021°11'4 7.2
2017-Jul-12 23:31N 58°59' E 021°16'4 7.0
2017-Jul-12 23:00N 59°01' E 021°21'4 7.8
2017-Jul-12 22:30N 59°04' E 021°27'4 7.1
2017-Jul-12 22:00N 59°06' E 021°33'3 6.8
2017-Jul-12 21:30N 59°09' E 021°37'3 6.6
2017-Jul-12 21:00N 59°11' E 021°42'4 7.2
2017-Jul-12 20:30N 59°13' E 021°47'3 6.8
2017-Jul-12 20:00N 59°16' E 021°53'4 7.8
2017-Jul-12 19:31N 59°18' E 021°59'3 6.5
2017-Jul-12 19:00N 59°20' E 022°04'4 7.2
2017-Jul-12 18:31N 59°22' E 022°09'4 8.4
2017-Jul-12 18:01N 59°25' E 022°15'4 7.4
2017-Jul-12 17:30N 59°27' E 022°21'4 7.2
2017-Jul-12 17:01N 59°30' E 022°26'3 6.9
2017-Jul-12 16:30N 59°32' E 022°32'4 7.9
2017-Jul-12 16:00N 59°33' E 022°39'3 6.8
2017-Jul-12 15:30N 59°34' E 022°46'4 7.8
2017-Jul-12 15:01N 59°35' E 022°53'8 7.8
2017-Jul-12 14:01N 59°37' E 023°08'5 9.2
2017-Jul-12 13:30N 59°38' E 023°17'3 6.4
2017-Jul-12 13:00N 59°40' E 023°23'4 7.7
2017-Jul-12 12:30N 59°41' E 023°30'4 7.5
2017-Jul-12 12:00N 59°43' E 023°36'4 7.5
2017-Jul-12 11:30N 59°43' E 023°44'4 7.2
2017-Jul-12 11:00N 59°43' E 023°51'3 5.8
2017-Jul-12 10:31N 59°43' E 023°57'4 7.1
2017-Jul-12 10:00N 59°45' E 024°03'4 7.2
2017-Jul-12 09:31N 59°46' E 024°10'4 7.3
2017-Jul-12 09:00N 59°47' E 024°17'4 7.5
2017-Jul-12 08:30N 59°47' E 024°24'4 8.0
2017-Jul-12 08:01N 59°48' E 024°32'4 7.5
2017-Jul-12 07:30N 59°49' E 024°39'4 7.6
2017-Jul-12 07:00N 59°49' E 024°47'4 7.6
2017-Jul-12 06:30N 59°50' E 024°54'3 6.4
2017-Jul-12 06:00N 59°51' E 025°00'4 8.3
2017-Jul-12 05:30N 59°52' E 025°08'4 8.1
2017-Jul-12 05:00N 59°53' E 025°16'4 7.9
2017-Jul-12 04:31N 59°53' E 025°24'4 7.9
2017-Jul-12 04:00N 59°54' E 025°32'4 7.9
2017-Jul-12 03:30N 59°55' E 025°39'4 7.8
2017-Jul-12 03:00N 59°56' E 025°47'4 7.8
2017-Jul-12 02:30N 59°57' E 025°54'4 7.8
2017-Jul-12 02:00N 59°58' E 026°02'4 7.6
2017-Jul-12 01:31N 59°59' E 026°09'4 7.5
2017-Jul-12 01:00N 59°60' E 026°17'4 7.5
2017-Jul-12 00:31N 60°01' E 026°24'4 7.5
2017-Jul-12 00:01N 60°02' E 026°31'4 7.3
2017-Jul-11 23:30N 60°02' E 026°38'4 7.5
2017-Jul-11 23:00N 60°01' E 026°46'4 7.5
2017-Jul-11 22:31N 60°00' E 026°53'4 7.5
2017-Jul-11 22:01N 59°60' E 027°00'3 6.8
2017-Jul-11 21:31N 60°01' E 027°07'4 7.1
2017-Jul-11 21:01N 60°02' E 027°13'4 8.4
2017-Jul-11 20:30N 60°05' E 027°20'4 7.3
2017-Jul-11 20:00N 60°07' E 027°26'3 6.4
2017-Jul-11 19:30N 60°08' E 027°32'4 7.4
2017-Jul-11 19:00N 60°10' E 027°38'4 7.5
2017-Jul-11 18:31N 60°12' E 027°45'4 7.7
2017-Jul-11 18:00N 60°11' E 027°52'4 7.8
2017-Jul-11 17:30N 60°10' E 028°00'4 7.7
2017-Jul-11 17:00N 60°09' E 028°08'4 7.6
2017-Jul-11 16:31N 60°08' E 028°15'4 7.6
2017-Jul-11 15:59N 60°06' E 028°22'4 7.8
2017-Jul-11 15:30N 60°04' E 028°28'4 7.8
2017-Jul-11 15:01N 60°04' E 028°36'4 7.9
2017-Jul-11 14:31N 60°03' E 028°44'4 7.8
2017-Jul-11 14:00N 60°03' E 028°51'4 7.7
2017-Jul-11 13:30N 60°03' E 028°59'20 7.6
2017-Jul-11 10:54N 60°00' E 029°38'3 8.1
2017-Jul-11 10:30N 59°59' E 029°44'4 7.3
2017-Jul-11 10:00N 59°57' E 029°51'4 7.4
2017-Jul-11 09:30N 59°56' E 029°58'4 7.8
2017-Jul-11 09:00N 59°54' E 030°05'3 5.8
2017-Jul-11 08:31N 59°53' E 030°10'2 4.3
2017-Jul-11 08:00N 59°54' E 030°14'0 0.0
2017-Jul-11 07:28N 59°54' E 030°14'0 0.0
2017-Jul-11 06:58N 59°54' E 030°14'0 0.0
2017-Jul-11 06:25N 59°54' E 030°14'0 0.0
2017-Jul-11 05:58N 59°54' E 030°14'0 0.0
2017-Jul-11 05:28N 59°54' E 030°14'0 0.0
2017-Jul-11 04:58N 59°54' E 030°14'0 0.0
2017-Jul-11 04:25N 59°54' E 030°14'0 0.0
2017-Jul-11 03:55N 59°54' E 030°14'0 0.0
2017-Jul-11 03:28N 59°54' E 030°14'0 0.0
2017-Jul-11 02:58N 59°54' E 030°14'0 0.0
2017-Jul-11 02:28N 59°54' E 030°14'0 0.0
2017-Jul-11 02:00N 59°54' E 030°14'3 5.5
2017-Jul-11 01:30N 59°56' E 030°18'3 5.9
2017-Jul-11 01:01N 59°56' E 030°24'3 5.0
2017-Jul-11 00:31N 59°54' E 030°26'1 1.6
2017-Jul-11 00:01N 59°53' E 030°27'3 5.7
2017-Jul-10 23:30N 59°51' E 030°30'0 0.1
2017-Jul-10 23:00N 59°51' E 030°30'0 0.0
2017-Jul-10 22:29N 59°51' E 030°30'0 0.0
2017-Jul-10 21:59N 59°51' E 030°30'0 0.0
2017-Jul-10 21:29N 59°51' E 030°30'0 0.0
2017-Jul-10 20:34N 59°51' E 030°30'0 0.0
2017-Jul-10 20:30N 59°51' E 030°30'0 0.0
2017-Jul-10 20:00N 59°51' E 030°30'0 0.0
2017-Jul-10 19:30N 59°51' E 030°30'0 0.0
2017-Jul-10 18:58N 59°51' E 030°30'0 0.0
2017-Jul-10 18:27N 59°51' E 030°30'0 0.0
2017-Jul-10 18:00N 59°51' E 030°30'0 0.3
2017-Jul-10 17:28N 59°51' E 030°30'2 4.9
2017-Jul-10 17:00N 59°50' E 030°34'  

Dump ship's entire track history